createdAt,value
2023-04-25T15:48:02.006Z,38.20
2023-04-25T15:50:28.898Z,53.60
2023-04-25T15:52:55.703Z,53.50
2023-04-25T15:55:23.213Z,53.60
2023-04-25T15:57:51.389Z,53.70
2023-04-25T16:00:19.344Z,53.50
2023-04-25T16:02:48.194Z,53.10
2023-04-25T16:05:15.680Z,53.20
2023-04-25T16:07:45.152Z,53.40
2023-04-25T16:10:12.791Z,53.00
2023-04-25T16:12:40.804Z,52.90
2023-04-25T16:15:08.067Z,53.00
2023-04-25T16:17:35.288Z,53.40
2023-04-25T16:20:05.006Z,53.80
2023-04-25T16:22:31.927Z,54.10
2023-04-25T16:24:58.610Z,54.30
2023-04-25T16:27:25.717Z,54.70
2023-04-25T16:29:52.580Z,54.70
2023-04-25T16:32:19.655Z,55.20
2023-04-25T16:34:46.508Z,55.40
2023-04-25T16:37:13.202Z,55.40
2023-04-25T16:39:39.932Z,55.40
2023-04-25T16:42:07.131Z,55.30
2023-04-25T16:44:33.903Z,55.40
2023-04-25T16:47:00.850Z,55.30
2023-04-25T16:49:27.895Z,55.50
2023-04-25T16:51:54.631Z,55.20
2023-04-25T16:54:21.327Z,55.40
2023-04-25T16:56:48.046Z,55.60
2023-04-25T16:59:14.738Z,56.00
2023-04-25T17:01:41.430Z,56.10
2023-04-25T17:04:08.293Z,56.60
2023-04-25T17:06:35.245Z,56.80
2023-04-25T17:09:02.025Z,56.50
2023-04-25T17:11:28.816Z,56.70
2023-04-25T17:13:55.684Z,56.90
2023-04-25T17:16:23.179Z,56.80
2023-04-25T17:18:53.504Z,56.50
2023-04-25T17:21:20.408Z,56.90
2023-04-25T17:23:47.287Z,56.70
2023-04-25T17:26:14.709Z,56.70
2023-04-25T17:28:42.285Z,56.80
2023-04-25T17:31:09.828Z,56.70
2023-04-25T17:33:36.711Z,56.70
2023-04-25T17:36:04.094Z,56.90
2023-04-25T17:38:31.590Z,57.00
2023-04-25T17:40:59.996Z,57.00
2023-04-25T17:43:27.710Z,57.10
2023-04-25T17:45:54.686Z,57.40
2023-04-25T17:48:24.234Z,57.80
2023-04-25T17:50:51.599Z,58.00
2023-04-25T17:53:18.339Z,57.90
2023-04-25T17:55:45.267Z,57.80
2023-04-25T17:58:11.942Z,60.00
2023-04-25T18:00:39.331Z,60.10
2023-04-25T18:03:06.998Z,61.90
2023-04-25T18:05:33.825Z,61.60
2023-04-25T18:08:00.853Z,60.70
2023-04-25T18:10:27.686Z,59.70
2023-04-25T18:12:54.478Z,59.50
2023-04-25T18:15:22.060Z,59.60
2023-04-25T18:17:49.150Z,60.80
2023-04-25T18:20:16.685Z,60.90
2023-04-25T18:22:44.835Z,61.00
2023-04-25T18:25:12.806Z,63.60
2023-04-25T18:27:40.781Z,64.10
2023-04-25T18:30:09.331Z,64.90
2023-04-25T18:32:36.777Z,64.40
2023-04-25T18:35:04.320Z,66.10
2023-04-25T18:37:30.992Z,64.80
2023-04-25T18:39:58.623Z,66.00
2023-04-25T18:42:25.386Z,66.80
2023-04-25T18:44:52.438Z,64.80
2023-04-25T18:47:19.188Z,64.60
2023-04-25T18:49:45.861Z,64.30
2023-04-25T18:52:16.020Z,64.00
2023-04-25T18:54:43.239Z,65.70
2023-04-25T18:57:11.546Z,65.00
2023-04-25T18:59:38.203Z,64.70
2023-04-25T19:02:05.473Z,65.60
2023-04-25T19:04:32.634Z,67.40
2023-04-25T19:06:59.674Z,67.80
2023-04-25T19:09:26.756Z,66.50
2023-04-25T19:11:54.108Z,66.40
2023-04-25T19:14:20.762Z,65.10
2023-04-25T19:16:47.552Z,65.00
2023-04-25T19:19:14.348Z,65.20
2023-04-25T19:21:41.639Z,65.50
2023-04-25T19:24:08.720Z,65.20
2023-04-25T19:26:35.629Z,64.90
2023-04-25T19:29:15.130Z,65.40
2023-04-25T19:31:44.025Z,66.10
2023-04-25T19:34:11.580Z,66.00
2023-04-25T19:36:39.528Z,66.10
2023-04-25T19:39:07.391Z,66.20
2023-04-25T19:41:38.524Z,66.20
2023-04-25T19:44:07.726Z,67.50
2023-04-25T19:46:35.755Z,67.70
2023-04-25T19:49:04.152Z,67.40
2023-04-25T19:51:34.073Z,67.80
2023-04-25T19:54:00.971Z,68.10
2023-04-25T19:56:29.660Z,68.00
2023-04-25T19:58:58.351Z,68.20
2023-04-25T20:01:25.592Z,67.90
2023-04-25T20:03:52.781Z,68.00
2023-04-25T20:06:19.871Z,68.20
2023-04-25T20:08:47.236Z,68.90
2023-04-25T20:11:14.891Z,68.50
2023-04-25T20:13:41.757Z,68.80
2023-04-25T20:16:08.504Z,68.60
2023-04-25T20:18:35.323Z,69.70
2023-04-25T20:21:02.455Z,69.70
2023-04-25T20:23:29.289Z,69.60
2023-04-25T20:25:56.150Z,69.60
2023-04-25T20:28:23.346Z,70.00
2023-04-25T20:30:50.676Z,70.80
2023-04-25T20:33:17.467Z,71.60
2023-04-25T20:35:44.513Z,72.40
2023-04-25T20:38:12.091Z,72.80
2023-04-25T20:40:38.986Z,73.50
2023-04-25T20:43:06.290Z,74.20
2023-04-25T20:45:34.566Z,74.60
2023-04-25T20:48:02.596Z,75.70
2023-04-25T20:50:29.586Z,76.40
2023-04-25T20:52:56.295Z,77.30
2023-04-25T20:55:22.978Z,77.80
2023-04-25T20:57:49.971Z,78.60
2023-04-25T21:00:27.023Z,80.20
2023-04-25T21:02:54.728Z,81.00
2023-04-25T21:05:22.313Z,82.50
2023-04-25T21:07:49.645Z,83.60
2023-04-25T21:10:19.547Z,84.60
2023-04-25T21:12:49.686Z,86.40
2023-04-25T21:15:20.156Z,88.00
2023-04-25T21:17:47.715Z,89.50
2023-04-25T21:20:17.688Z,90.60
2023-04-25T21:22:54.038Z,91.50
2023-04-25T21:25:30.015Z,92.70
2023-04-25T21:27:57.420Z,94.10
2023-04-25T21:30:24.858Z,95.40
2023-04-25T21:32:52.837Z,96.40
2023-04-25T21:35:23.066Z,97.60
2023-04-25T21:37:50.686Z,98.70
2023-04-25T21:40:17.677Z,99.70
2023-04-25T21:42:46.891Z,99.90
2023-04-25T21:45:13.581Z,99.90
2023-04-25T21:47:40.398Z,99.90
2023-04-25T21:50:07.971Z,99.90
2023-04-25T21:52:37.928Z,99.90
2023-04-25T21:55:05.752Z,99.90
2023-04-25T21:57:32.439Z,99.90
2023-04-25T21:59:59.131Z,99.90
2023-04-25T22:02:27.313Z,99.90
2023-04-25T22:04:54.100Z,99.90
2023-04-25T22:07:20.783Z,99.90
2023-04-25T22:09:55.043Z,99.90
2023-04-25T22:12:23.538Z,99.90
